Columbus, OH

11:43 PM EST on February 19, 2017 (GMT -0500)
Worthington Wilson Hill | | Change Station
Active Advisory: Special Statement

Elev 902 ft 40.10 °N, 83.01 °W | Updated 0 second ago

Clear
Clear
42.7 °F
Feels Like 43 °F
N
0.0
Wind Variable Wind from SSW

Today
High -- | Low -- °F
--% Chance of Precip.
Yesterday
High -- | Low -- °F
Precip. -- in
Pressure 30.16 in
Visibility 4.0 miles
Clouds Clear
Windchill 43 °F
Dew Point 42 °F
Humidity 98%
Rainfall 0.00 in
Snow Depth Not available.
7:19 AM 6:12 PM
Last Quarter, 37% visible
METAR KOSU 200353Z 00000KT 4SM BR CLR 06/06 A3015 RMK AO2 SLP213 T00610056
Pressure 30.16 in
Visibility 4.0 miles
Clouds Clear
Windchill 43 °F
Dew Point 42 °F
Humidity 98%
Rainfall 0.00 in
Snow Depth Not available.
7:19 AM 6:12 PM
Last Quarter, 37% visible
METAR KOSU 200353Z 00000KT 4SM BR CLR 06/06 A3015 RMK AO2 SLP213 T00610056

Get Your Daily Forecast Email!

Thanks for signing up!

Be on the lookout for a verification email in your inbox.

You'll start receiving the daily forecast at 8 AM.

×

10-Day Weather Forecast

Almanac

Astronomy

Feb. 19, 2017 Rise Set
Actual Time
Civil Twilight
Nautical Twilight
Astronomical Twilight
Moon
Length of Visible Light
Length of Day
Tomorrow will be .
, % of the Moon is Illuminated

Today's Extremes

State Highs State Lows

Community

WunderPhotos

Upload Photos

1,962,540 photos uploaded!

WunderBlog® & News

Nearby

Air Quality

  Air Quality AQ Index Pollutant
Not available.

Snow Depth

Station Depth Elevation

Earthquake Activity

City Distance Mag. Time & Date
Minimum magnitude displayed is 2.5.

Coastal Water Temperatures

Place Temperature

Stations

Nearby Weather Stations

Station Location Temp. Windchill Dew Point Humidity Wind Precip. Elev Updated Type
                   

Watches & Warnings

Special Statement
Issued: 10:45 PM EST Feb. 19, 2017 – National Weather Service

... Patchy dense fog possible overnight...

Areas of fog will continue into the overnight hours. Some of the
fog will be locally dense with visibilities dropping below a half
a mile at times. Motorists should use extra caution tonight. Slow
down and use low-beam headlights if you encounter dense fog.




1045 PM EST sun Feb 19 2017

... Patchy dense fog possible overnight...

Areas of fog will continue into the overnight hours. Some of the
fog will be locally dense with visibilities dropping below a half
a mile at times. Motorists should use extra caution tonight. Slow
down and use low-beam headlights if you encounter dense fog.